createdAt,value
2017-08-15T00:01:00.973Z,17.00
2017-08-15T00:03:30.259Z,17.10
2017-08-15T00:05:59.451Z,17.00
2017-08-15T00:08:28.339Z,17.00
2017-08-15T00:10:56.820Z,17.00
2017-08-15T00:13:25.815Z,17.10
2017-08-15T00:15:56.033Z,17.10
2017-08-15T00:18:24.845Z,17.10
2017-08-15T00:20:54.338Z,17.10
2017-08-15T00:23:22.982Z,17.10
2017-08-15T00:25:51.337Z,17.20
2017-08-15T00:28:19.715Z,17.20
2017-08-15T00:30:49.427Z,17.30
2017-08-15T00:33:17.739Z,17.30
2017-08-15T00:35:46.072Z,17.30
2017-08-15T00:38:15.115Z,17.30
2017-08-15T00:40:43.524Z,17.30
2017-08-15T00:43:11.956Z,17.40
2017-08-15T00:45:40.302Z,17.40
2017-08-15T00:48:08.996Z,17.40
2017-08-15T00:50:37.406Z,17.40
2017-08-15T00:53:06.390Z,17.40
2017-08-15T00:55:34.941Z,17.50
2017-08-15T00:58:03.454Z,17.50
2017-08-15T01:00:32.843Z,17.50
2017-08-15T01:03:01.791Z,17.50
2017-08-15T01:05:31.428Z,17.50
2017-08-15T01:08:01.240Z,17.50
2017-08-15T01:10:30.075Z,17.50
2017-08-15T01:12:59.198Z,17.50
2017-08-15T01:15:30.854Z,17.50
2017-08-15T01:17:59.564Z,17.60
2017-08-15T01:20:29.150Z,17.60
2017-08-15T01:22:58.147Z,17.60
2017-08-15T01:25:27.365Z,17.70
2017-08-15T01:27:56.831Z,17.70
2017-08-15T01:30:26.060Z,17.70
2017-08-15T01:32:54.646Z,17.70
2017-08-15T01:35:23.451Z,17.70
2017-08-15T01:37:53.640Z,17.70
2017-08-15T01:40:22.150Z,17.80
2017-08-15T01:42:50.497Z,17.70
2017-08-15T01:45:20.124Z,17.70
2017-08-15T01:47:48.462Z,17.70
2017-08-15T01:50:17.606Z,17.70
2017-08-15T01:52:46.359Z,17.70
2017-08-15T01:55:14.677Z,17.70
2017-08-15T01:57:43.752Z,17.80
2017-08-15T02:00:13.275Z,17.90
2017-08-15T02:02:41.621Z,17.80
2017-08-15T02:05:10.278Z,17.90
2017-08-15T02:07:39.488Z,18.00
2017-08-15T02:10:08.013Z,18.00
2017-08-15T02:12:36.629Z,18.00
2017-08-15T02:15:05.535Z,18.00
2017-08-15T02:17:34.116Z,18.10
2017-08-15T02:20:02.802Z,18.10
2017-08-15T02:22:32.363Z,18.20
2017-08-15T02:25:02.837Z,18.20
2017-08-15T02:27:31.576Z,18.20
2017-08-15T02:30:01.130Z,18.20
2017-08-15T02:32:29.936Z,18.10
2017-08-15T02:34:59.961Z,18.10
2017-08-15T02:37:30.049Z,18.10
2017-08-15T02:39:58.977Z,18.10
2017-08-15T02:42:28.265Z,18.10
2017-08-15T02:44:59.317Z,18.00
2017-08-15T02:47:27.839Z,18.10
2017-08-15T02:49:56.359Z,18.10
2017-08-15T02:52:25.152Z,18.10
2017-08-15T02:54:53.621Z,18.10
2017-08-15T02:57:21.985Z,18.10
2017-08-15T02:59:52.018Z,18.10
2017-08-15T03:02:20.354Z,18.10
2017-08-15T03:04:49.458Z,18.10
2017-08-15T03:07:18.566Z,18.10
2017-08-15T03:09:46.860Z,18.10
2017-08-15T03:12:15.180Z,18.10
2017-08-15T03:14:43.837Z,18.10
2017-08-15T03:17:12.183Z,18.10
2017-08-15T03:19:40.534Z,18.00
2017-08-15T03:22:10.174Z,17.90
2017-08-15T03:24:38.773Z,17.90
2017-08-15T03:27:07.279Z,17.90
2017-08-15T03:29:37.810Z,17.90
2017-08-15T03:32:07.188Z,17.80
2017-08-15T03:37:15.617Z,17.90
2017-08-15T03:39:43.946Z,17.90
2017-08-15T03:42:12.273Z,17.90
2017-08-15T03:44:41.614Z,17.90
2017-08-15T03:47:09.944Z,17.90
2017-08-15T03:49:38.539Z,17.90
2017-08-15T03:52:07.610Z,17.90
2017-08-15T03:54:36.212Z,17.90
2017-08-15T03:57:04.631Z,17.90
2017-08-15T03:59:33.382Z,17.90
2017-08-15T04:02:01.886Z,17.90
2017-08-15T04:04:30.735Z,17.90
2017-08-15T04:06:59.965Z,17.90
2017-08-15T04:09:32.562Z,17.90
2017-08-15T04:12:01.513Z,17.90
2017-08-15T04:14:31.068Z,17.90
2017-08-15T04:17:00.101Z,18.00
2017-08-15T04:19:29.252Z,18.00
2017-08-15T04:21:59.481Z,18.00
2017-08-15T04:24:28.578Z,18.00
2017-08-15T04:26:58.244Z,18.00
2017-08-15T04:29:27.650Z,18.10
2017-08-15T04:31:57.204Z,18.10
2017-08-15T04:34:27.795Z,18.10
2017-08-15T04:36:56.927Z,18.10
2017-08-15T04:39:27.620Z,18.00
2017-08-15T04:41:57.711Z,18.00
2017-08-15T04:44:27.830Z,18.00
2017-08-15T04:46:57.056Z,17.90
2017-08-15T04:49:28.840Z,17.90
2017-08-15T04:51:58.682Z,17.90
2017-08-15T04:54:29.934Z,17.80
2017-08-15T04:56:59.097Z,17.80
2017-08-15T04:59:28.950Z,17.80
2017-08-15T05:01:59.307Z,17.80
2017-08-15T05:04:28.943Z,17.80
2017-08-15T05:06:57.962Z,17.80
2017-08-15T05:09:28.960Z,17.80
2017-08-15T05:11:58.959Z,17.70
2017-08-15T05:14:30.031Z,17.70
2017-08-15T05:16:58.928Z,17.60
2017-08-15T05:19:27.929Z,17.70
2017-08-15T05:21:58.862Z,17.70
2017-08-15T05:24:27.656Z,17.70
2017-08-15T05:26:56.670Z,17.70
2017-08-15T05:29:26.341Z,17.70
2017-08-15T05:31:56.209Z,17.60
2017-08-15T05:34:25.486Z,17.60
2017-08-15T05:36:55.381Z,17.60
2017-08-15T05:39:24.500Z,17.60
2017-08-15T05:41:54.331Z,17.60
2017-08-15T05:44:23.381Z,17.50
2017-08-15T05:46:51.752Z,17.50
2017-08-15T05:49:20.087Z,17.50
2017-08-15T05:51:49.470Z,17.50
2017-08-15T05:54:17.782Z,17.50
2017-08-15T05:56:46.886Z,17.40
2017-08-15T05:59:15.663Z,17.50
2017-08-15T06:01:44.948Z,17.50
2017-08-15T06:04:14.229Z,17.50
2017-08-15T06:06:43.295Z,17.50
2017-08-15T06:09:11.726Z,17.60
2017-08-15T06:11:40.226Z,17.60
2017-08-15T06:14:09.733Z,17.70
2017-08-15T06:16:38.271Z,17.80
2017-08-15T06:19:07.873Z,17.90
2017-08-15T06:21:37.915Z,18.00
2017-08-15T06:24:06.527Z,18.10
2017-08-15T06:26:36.262Z,18.30
2017-08-15T06:29:05.118Z,18.30
2017-08-15T06:31:34.532Z,18.60
2017-08-15T06:34:03.146Z,18.60
2017-08-15T06:36:33.472Z,18.80
2017-08-15T06:39:02.157Z,18.90
2017-08-15T06:41:31.048Z,19.00
2017-08-15T06:44:00.106Z,19.10
2017-08-15T06:46:29.767Z,19.20
2017-08-15T06:48:59.397Z,19.30
2017-08-15T06:51:28.484Z,19.40
2017-08-15T06:53:57.835Z,19.40
2017-08-15T06:56:27.015Z,19.60
2017-08-15T06:58:58.032Z,19.60
2017-08-15T07:01:28.247Z,19.50
2017-08-15T07:03:59.817Z,19.60
2017-08-15T07:06:29.270Z,19.70
2017-08-15T07:08:58.366Z,19.60
2017-08-15T07:11:29.228Z,19.70
2017-08-15T07:13:57.706Z,19.80
2017-08-15T07:16:26.319Z,19.90
2017-08-15T07:18:55.795Z,19.80
2017-08-15T07:21:24.969Z,19.90
2017-08-15T07:23:53.615Z,19.90
2017-08-15T07:26:22.477Z,20.10
2017-08-15T07:28:50.956Z,20.10
2017-08-15T07:31:19.264Z,20.10
2017-08-15T07:33:48.787Z,20.20
2017-08-15T07:36:17.115Z,20.20
2017-08-15T07:38:45.445Z,20.30
2017-08-15T07:41:14.196Z,20.40
2017-08-15T07:43:42.576Z,20.40
2017-08-15T07:46:11.055Z,20.50
2017-08-15T07:48:40.043Z,20.60
2017-08-15T07:51:08.730Z,20.60
2017-08-15T07:53:38.062Z,20.60
2017-08-15T07:56:07.511Z,20.60
2017-08-15T07:58:36.630Z,20.80
2017-08-15T08:01:05.208Z,20.80
2017-08-15T08:03:34.235Z,20.90
2017-08-15T08:06:02.769Z,20.90
2017-08-15T08:08:31.382Z,20.80
2017-08-15T08:11:02.034Z,20.70
2017-08-15T08:13:31.848Z,20.90
2017-08-15T08:16:00.483Z,20.90
2017-08-15T08:18:30.806Z,21.00
2017-08-15T08:21:00.318Z,21.00
2017-08-15T08:23:29.067Z,21.10
2017-08-15T08:25:59.677Z,21.20
2017-08-15T08:28:28.312Z,21.20
2017-08-15T08:30:58.346Z,21.20
2017-08-15T08:33:28.687Z,21.20
2017-08-15T08:35:59.252Z,21.20
2017-08-15T08:38:28.546Z,21.40
2017-08-15T08:40:59.189Z,21.40
2017-08-15T08:43:28.427Z,21.30
2017-08-15T08:45:57.033Z,21.40
2017-08-15T08:48:27.785Z,21.60
2017-08-15T08:50:57.864Z,21.90
2017-08-15T08:53:29.172Z,21.90
2017-08-15T08:55:59.263Z,22.10
2017-08-15T08:58:28.234Z,22.10
2017-08-15T09:00:57.540Z,22.20
2017-08-15T09:03:26.532Z,22.20
2017-08-15T09:05:55.163Z,22.20
2017-08-15T09:08:24.171Z,22.20
2017-08-15T09:10:52.573Z,22.20
2017-08-15T09:13:21.069Z,22.20
2017-08-15T09:15:49.537Z,22.30
2017-08-15T09:18:18.629Z,22.50
2017-08-15T09:20:47.001Z,22.50
2017-08-15T09:23:15.594Z,22.60
2017-08-15T09:25:44.146Z,22.80
2017-08-15T09:28:12.603Z,22.80
2017-08-15T09:30:41.904Z,23.20
2017-08-15T09:33:10.232Z,23.60
2017-08-15T09:35:38.864Z,24.00
2017-08-15T09:38:07.832Z,24.30
2017-08-15T09:40:36.393Z,24.80
2017-08-15T09:43:05.137Z,25.30
2017-08-15T09:45:34.290Z,25.40
2017-08-15T09:48:03.434Z,25.80
2017-08-15T09:50:32.285Z,26.20
2017-08-15T09:53:01.618Z,26.40
2017-08-15T09:55:30.685Z,26.70
2017-08-15T09:58:14.374Z,26.60
2017-08-15T10:00:42.729Z,26.70
2017-08-15T10:03:11.091Z,27.10
2017-08-15T10:05:41.145Z,27.50
2017-08-15T10:08:09.488Z,27.50
2017-08-15T10:10:38.274Z,27.60
2017-08-15T10:13:07.883Z,27.80
2017-08-15T10:15:37.304Z,28.50
2017-08-15T10:18:05.968Z,28.50
2017-08-15T10:20:35.986Z,28.90
2017-08-15T10:23:04.612Z,29.50
2017-08-15T10:25:33.090Z,29.40
2017-08-15T10:28:02.592Z,29.60
2017-08-15T10:30:31.183Z,30.00
2017-08-15T10:33:00.273Z,29.80
2017-08-15T10:35:29.781Z,29.60
2017-08-15T10:37:59.078Z,29.30
2017-08-15T10:40:28.277Z,29.30
2017-08-15T10:42:57.724Z,29.30
2017-08-15T10:45:26.691Z,29.40
2017-08-15T10:47:55.949Z,29.30
2017-08-15T10:50:25.120Z,29.50
2017-08-15T10:52:53.752Z,29.80
2017-08-15T10:55:22.151Z,30.30
2017-08-15T10:57:51.711Z,30.20
2017-08-15T11:00:20.066Z,30.10
2017-08-15T11:02:48.413Z,29.40
2017-08-15T11:05:16.989Z,28.70
2017-08-15T11:07:45.323Z,28.50
2017-08-15T11:10:13.649Z,28.20
2017-08-15T11:12:42.166Z,28.00
2017-08-15T11:15:10.544Z,27.90
2017-08-15T11:17:38.888Z,27.90
2017-08-15T11:20:08.600Z,28.20
2017-08-15T11:22:36.985Z,28.80
2017-08-15T11:47:25.110Z,31.50
2017-08-15T11:49:53.484Z,31.50
2017-08-15T11:52:21.876Z,31.20
2017-08-15T11:54:51.196Z,31.00
2017-08-15T11:57:19.604Z,31.00
2017-08-15T11:59:47.942Z,31.00
2017-08-15T12:02:16.749Z,31.10
2017-08-15T12:04:45.201Z,31.50
2017-08-15T12:07:13.681Z,31.60
2017-08-15T12:09:42.458Z,31.40
2017-08-15T12:12:10.882Z,31.30
2017-08-15T12:14:39.264Z,31.10
2017-08-15T12:17:08.035Z,31.30
2017-08-15T12:19:36.394Z,31.40
2017-08-15T12:22:04.798Z,31.60
2017-08-15T12:24:34.137Z,31.80
2017-08-15T12:27:02.477Z,31.80
2017-08-15T12:29:30.848Z,31.90
2017-08-15T12:31:59.828Z,32.20
2017-08-15T12:34:28.157Z,31.80
2017-08-15T12:36:56.582Z,31.80
2017-08-15T12:39:25.644Z,31.30
2017-08-15T12:41:53.970Z,30.80
2017-08-15T12:44:23.080Z,30.10
2017-08-15T12:46:52.677Z,30.10
2017-08-15T12:49:21.410Z,30.70
2017-08-15T12:51:49.772Z,31.00
2017-08-15T12:54:20.308Z,31.20
2017-08-15T12:56:48.654Z,31.20
2017-08-15T12:59:17.001Z,31.50
2017-08-15T13:01:47.472Z,31.50
2017-08-15T13:04:15.839Z,31.40
2017-08-15T13:06:44.226Z,31.20
2017-08-15T13:09:13.916Z,31.00
2017-08-15T13:11:42.275Z,31.00
2017-08-15T13:14:10.579Z,31.20
2017-08-15T13:16:38.954Z,31.10
2017-08-15T13:19:07.307Z,30.90
2017-08-15T13:21:35.655Z,31.10
2017-08-15T13:24:04.396Z,31.10
2017-08-15T13:26:32.774Z,31.00
2017-08-15T13:29:01.129Z,31.20
2017-08-15T13:31:29.634Z,31.50
2017-08-15T13:33:58.941Z,31.70
2017-08-15T13:36:27.277Z,31.60
2017-08-15T13:38:58.113Z,31.30
2017-08-15T13:41:28.369Z,30.80
2017-08-15T13:43:57.563Z,30.10
2017-08-15T13:46:26.727Z,30.10
2017-08-15T13:48:55.056Z,29.80
2017-08-15T13:51:24.338Z,29.80
2017-08-15T13:53:53.193Z,29.80
2017-08-15T13:56:21.525Z,29.90
2017-08-15T13:58:49.857Z,30.20
2017-08-15T14:01:19.014Z,30.30
2017-08-15T14:03:47.361Z,30.00
2017-08-15T14:06:16.510Z,29.50
2017-08-15T14:08:45.005Z,29.50
2017-08-15T14:11:13.341Z,29.30
2017-08-15T14:13:41.658Z,29.20
2017-08-15T14:16:10.368Z,29.00
2017-08-15T14:18:39.487Z,28.60
2017-08-15T14:21:07.824Z,28.60
2017-08-15T14:23:37.048Z,28.50
2017-08-15T14:26:05.405Z,28.70
2017-08-15T14:28:33.728Z,28.70
2017-08-15T14:31:07.210Z,28.60
2017-08-15T14:33:36.818Z,28.50
2017-08-15T14:36:05.212Z,28.50
2017-08-15T14:38:34.302Z,28.50
2017-08-15T14:41:02.690Z,28.40
2017-08-15T14:43:31.144Z,28.50
2017-08-15T14:46:01.285Z,28.60
2017-08-15T14:48:36.216Z,28.50
2017-08-15T14:51:04.697Z,28.40
2017-08-15T14:53:33.477Z,28.20
2017-08-15T14:56:01.894Z,28.20
2017-08-15T14:58:30.758Z,28.20
2017-08-15T15:00:59.909Z,28.20
2017-08-15T15:03:28.223Z,28.20
2017-08-15T15:05:57.249Z,28.30
2017-08-15T15:08:25.715Z,28.40
2017-08-15T15:10:54.113Z,28.50
2017-08-15T15:13:22.573Z,28.60
2017-08-15T15:15:50.933Z,28.50
2017-08-15T15:18:19.318Z,28.30
2017-08-15T15:20:48.168Z,28.20
2017-08-15T15:23:18.215Z,28.10
2017-08-15T15:25:46.557Z,28.30
2017-08-15T15:28:16.135Z,28.50
2017-08-15T15:30:44.493Z,28.60
2017-08-15T15:33:12.855Z,28.60
2017-08-15T15:35:41.565Z,28.60
2017-08-15T15:38:09.919Z,28.30
2017-08-15T15:40:38.304Z,28.20
2017-08-15T15:43:07.060Z,28.00
2017-08-15T15:45:35.405Z,27.80
2017-08-15T15:48:03.846Z,27.80
2017-08-15T15:50:34.948Z,27.70
2017-08-15T15:53:04.905Z,27.60
2017-08-15T15:55:33.798Z,27.50
2017-08-15T15:58:03.507Z,27.40
2017-08-15T16:00:34.598Z,27.40
2017-08-15T16:03:03.016Z,27.20
2017-08-15T16:05:32.073Z,27.20
2017-08-15T16:08:01.763Z,27.20
2017-08-15T16:10:31.186Z,27.30
2017-08-15T16:13:00.287Z,27.20
2017-08-15T16:15:28.968Z,27.10
2017-08-15T16:17:57.418Z,27.10
2017-08-15T16:20:26.313Z,27.10
2017-08-15T16:22:55.703Z,27.10
2017-08-15T16:25:24.159Z,27.10
2017-08-15T16:27:53.044Z,27.10
2017-08-15T16:30:21.725Z,27.10
2017-08-15T16:32:50.063Z,27.10
2017-08-15T16:35:18.881Z,27.00
2017-08-15T16:37:47.333Z,27.00
2017-08-15T16:40:15.860Z,27.00
2017-08-15T16:42:44.721Z,27.00
2017-08-15T16:45:13.397Z,27.10
2017-08-15T16:47:42.505Z,27.00
2017-08-15T16:50:11.659Z,27.00
2017-08-15T16:52:40.045Z,26.90
2017-08-15T16:55:08.457Z,26.90
2017-08-15T16:57:37.786Z,26.90
2017-08-15T17:00:06.277Z,26.90
2017-08-15T17:02:34.614Z,26.90
2017-08-15T17:05:03.175Z,26.80
2017-08-15T17:07:31.641Z,26.70
2017-08-15T17:10:00.169Z,26.60
2017-08-15T17:12:30.346Z,26.40
2017-08-15T17:14:59.172Z,26.30
2017-08-15T17:17:28.554Z,26.20
2017-08-15T17:19:57.122Z,26.20
2017-08-15T17:22:25.958Z,26.10
2017-08-15T17:24:54.310Z,26.10
2017-08-15T17:27:23.220Z,26.00
2017-08-15T17:29:51.619Z,26.00
2017-08-15T17:32:19.993Z,26.00
2017-08-15T17:34:48.808Z,26.00
2017-08-15T17:37:17.181Z,25.90
2017-08-15T17:39:46.503Z,25.80
2017-08-15T17:42:14.982Z,25.80
2017-08-15T17:44:43.353Z,25.70
2017-08-15T17:47:11.709Z,25.70
2017-08-15T17:49:40.511Z,25.60
2017-08-15T17:52:08.852Z,25.60
2017-08-15T17:54:37.264Z,25.50
2017-08-15T17:57:06.359Z,25.40
2017-08-15T17:59:36.051Z,25.40
2017-08-15T18:02:04.842Z,25.30
2017-08-15T18:04:33.612Z,25.30
2017-08-15T18:07:02.027Z,25.30
2017-08-15T18:09:30.409Z,25.30
2017-08-15T18:11:59.579Z,25.20
2017-08-15T18:14:28.096Z,25.20
2017-08-15T18:16:56.668Z,25.10
2017-08-15T18:19:25.461Z,25.10
2017-08-15T18:21:54.154Z,25.10
2017-08-15T18:24:22.818Z,24.90
2017-08-15T18:26:51.292Z,24.60
2017-08-15T18:29:19.634Z,24.30
2017-08-15T18:31:47.953Z,24.00
2017-08-15T18:34:18.841Z,23.50
2017-08-15T18:36:47.265Z,23.50
2017-08-15T18:39:15.611Z,23.20
2017-08-15T18:41:44.445Z,22.80
2017-08-15T18:44:12.879Z,22.30
2017-08-15T18:46:43.180Z,22.00
2017-08-15T18:49:12.106Z,21.50
2017-08-15T18:51:40.437Z,20.90
2017-08-15T18:54:09.638Z,20.00
2017-08-15T18:56:38.552Z,19.90
2017-08-15T18:59:07.717Z,19.40
2017-08-15T19:01:36.925Z,19.40
2017-08-15T19:04:05.851Z,19.20
2017-08-15T19:06:34.189Z,19.00
2017-08-15T19:09:02.557Z,19.00
2017-08-15T19:11:31.652Z,19.00
2017-08-15T19:13:59.987Z,18.90
2017-08-15T19:16:28.649Z,18.90
2017-08-15T19:18:57.337Z,18.90
2017-08-15T19:21:25.961Z,18.90
2017-08-15T19:23:54.449Z,18.90
2017-08-15T19:26:23.957Z,18.90
2017-08-15T19:28:52.557Z,19.00
2017-08-15T19:31:20.978Z,19.00
2017-08-15T19:33:49.556Z,19.10
2017-08-15T19:36:17.889Z,19.10
2017-08-15T19:38:46.989Z,19.10
2017-08-15T19:41:16.725Z,19.10
2017-08-15T19:43:45.133Z,19.20
2017-08-15T19:46:14.218Z,19.20
2017-08-15T19:48:44.907Z,19.20
2017-08-15T19:51:15.227Z,19.20
2017-08-15T19:53:43.993Z,19.20
2017-08-15T19:56:12.971Z,19.20
2017-08-15T19:58:44.648Z,19.20
2017-08-15T20:01:14.265Z,19.30
2017-08-15T20:03:42.869Z,19.20
2017-08-15T20:06:11.967Z,19.20
2017-08-15T20:08:41.430Z,19.20
2017-08-15T20:11:09.833Z,19.10
2017-08-15T20:13:38.206Z,19.10
2017-08-15T20:16:06.891Z,19.10
2017-08-15T20:18:35.223Z,19.20
2017-08-15T20:21:03.632Z,19.20
2017-08-15T20:23:32.481Z,19.20
2017-08-15T20:26:01.370Z,19.20
2017-08-15T20:28:30.666Z,19.20
2017-08-15T20:30:59.414Z,19.20
2017-08-15T20:33:28.069Z,19.20
2017-08-15T20:35:57.130Z,19.20
2017-08-15T20:38:25.767Z,19.20
2017-08-15T20:40:54.207Z,19.20
2017-08-15T20:43:22.553Z,19.20
2017-08-15T20:45:50.952Z,19.30
2017-08-15T20:48:19.378Z,19.30
2017-08-15T20:50:48.003Z,19.30
2017-08-15T20:53:17.368Z,19.40
2017-08-15T20:55:45.778Z,19.40
2017-08-15T20:58:15.066Z,19.30
2017-08-15T21:00:44.670Z,19.30
2017-08-15T21:03:13.230Z,19.30
2017-08-15T21:05:41.849Z,19.20
2017-08-15T21:08:10.524Z,19.20
2017-08-15T21:10:39.035Z,19.20
2017-08-15T21:13:07.465Z,19.10
2017-08-15T21:15:36.882Z,19.20
2017-08-15T21:18:05.369Z,19.10
2017-08-15T21:20:33.964Z,19.10
2017-08-15T21:23:03.132Z,19.10
2017-08-15T21:25:31.700Z,19.10
2017-08-15T21:28:00.258Z,19.10
2017-08-15T21:30:29.260Z,19.20
2017-08-15T21:32:57.889Z,19.10
2017-08-15T21:35:27.281Z,19.10
2017-08-15T21:37:55.981Z,19.10
2017-08-15T21:40:24.344Z,19.10
2017-08-15T21:42:52.695Z,19.10
2017-08-15T21:45:21.788Z,19.10
2017-08-15T21:47:50.109Z,19.10
2017-08-15T21:50:19.230Z,19.10
2017-08-15T21:52:48.025Z,19.00
2017-08-15T21:55:16.430Z,19.10
2017-08-15T21:57:45.615Z,19.10
2017-08-15T22:00:15.263Z,19.00
2017-08-15T22:02:43.585Z,19.00
2017-08-15T22:05:12.134Z,19.00
2017-08-15T22:07:41.047Z,19.00
2017-08-15T22:10:09.604Z,19.00
2017-08-15T22:12:37.949Z,18.90
2017-08-15T22:15:07.027Z,18.90
2017-08-15T22:17:35.590Z,18.90
2017-08-15T22:20:04.718Z,18.90
2017-08-15T22:22:33.405Z,18.80
2017-08-15T22:25:01.729Z,18.80
2017-08-15T22:27:30.805Z,18.70
2017-08-15T22:29:59.721Z,18.70
2017-08-15T22:32:28.044Z,18.70
2017-08-15T22:34:56.497Z,18.70
2017-08-15T22:37:26.186Z,18.70
2017-08-15T22:39:55.282Z,18.70
2017-08-15T22:42:23.633Z,18.70
2017-08-15T22:44:52.332Z,18.70
2017-08-15T22:47:20.662Z,18.70
2017-08-15T22:49:49.754Z,18.70
2017-08-15T22:52:18.161Z,18.70
2017-08-15T22:54:46.482Z,18.70
2017-08-15T22:57:14.838Z,18.70
2017-08-15T22:59:43.691Z,18.60
2017-08-15T23:02:12.806Z,18.60
2017-08-15T23:04:41.185Z,18.60
2017-08-15T23:07:09.954Z,18.60
2017-08-15T23:09:38.378Z,18.60
2017-08-15T23:12:07.464Z,18.50
2017-08-15T23:14:37.111Z,18.60
2017-08-15T23:17:05.562Z,18.60
2017-08-15T23:19:33.899Z,18.50
2017-08-15T23:22:03.214Z,18.50
2017-08-15T23:24:31.570Z,18.60
2017-08-15T23:26:59.923Z,18.60
2017-08-15T23:29:29.027Z,18.60
2017-08-15T23:31:57.353Z,18.50
2017-08-15T23:34:25.721Z,18.50
2017-08-15T23:36:54.539Z,18.50
2017-08-15T23:39:22.922Z,18.40
2017-08-15T23:41:52.014Z,18.40
2017-08-15T23:44:23.463Z,18.30
2017-08-15T23:46:51.839Z,18.30
2017-08-15T23:49:21.075Z,18.30
2017-08-15T23:51:51.333Z,18.30
2017-08-15T23:54:19.668Z,18.30
2017-08-15T23:56:48.756Z,18.30
2017-08-15T23:59:17.358Z,18.20
